Terminal Aerodrome Forecast
Issued by NWS

Home | Current Version | Previous Version | Text Only | Print | Product List | Glossary On
Versions: 1 2 3 4 5 6 7 8 9 10 11 12 13 14 15
000
FTUS45 KPSR 191140
TAFBLH
TAF
KBLH 191140Z 1912/2012 18006KT P6SM BKN050
      TEMPO 1912/1915 BKN030
     FM191700 19005KT P6SM FEW060=

USA.gov is the U.S. government's official web portal to all federal, state and local government web resources and services.